Rockford, IL (61101)

9:15 AM CST on December 19, 2014 (GMT -0600)
Rockford Plaza | Change Station
CLOSE
Current Station
Personal Weather Station
Location: Rockford, IL
Elevation: 787 ft
Nearby Weather Stations

Elev 787 ft 42.27 °N, 89.06 °W | Updated 26 seconds ago

Overcast
Overcast
27.0 °F
Feels Like 27 °F
N
1.0
Wind Variable Wind from ENE
Gusts 0.0 mph

Today
High -- | Low -- °F
--% Chance of Precip.
Yesterday
High -- | Low -- °F
Precip. -- in
7:21 AM 4:26 PM
Waning Crescent, 7% visible
Pressure 30.36 in
Visibility 8.0 miles
Clouds Overcast 1200 ft
Windchill 27 °F
Dew Point 14 °F
Humidity 58%
Rainfall 0.00 in
Snow Depth Not available.
UV 0 out of 12
Pollen .10 out of 12
Air Quality Not available.
Flu Activity Not available.
METAR KRFD 191454Z 03004KT 8SM -SN OVC012 M03/M06 A3032 RMK AO2 SNB49 SLP279 P0000 60000 T10281061 51008

More Conditions Fewer Conditions

Pressure 30.36 in
Visibility 8.0 miles
Clouds Overcast 1200 ft
Windchill 27 °F
Dew Point 14 °F
Humidity 58%
Rainfall 0.00 in
Snow Depth Not available.
UV 0 out of 12
Pollen .10 out of 12
Air Quality Not available.
Flu Activity Not available.
METAR KRFD 191454Z 03004KT 8SM -SN OVC012 M03/M06 A3032 RMK AO2 SNB49 SLP279 P0000 60000 T10281061 51008

More Conditions Fewer Conditions

10-Day Weather Forecast

Almanac

Astronomy

Dec. 19, 2014 Rise Set
Actual Time
Civil Twilight
Nautical Twilight
Astronomical Twilight
Moon
Length of Visible Light
Length of Day
Tomorrow will be .
, % of the Moon is Illuminated

Today's Extremes

State Highs State Lows

Community

WunderPhotos

Upload Photos

1,778,996 photos uploaded!

WunderBlogs® & News

Nearby

Air Quality

  Air Quality AQ Index Pollutant
Not available.

Snow Depth

Station Depth Elevation

Earthquake Activity

City Distance Mag. Time & Date
Minimum magnitude displayed is 2.5.

Coastal Water Temperatures

Place Temperature

Nearby Weather Stations